WetterOnline ( https://www.wetteronline.ch )

Wetter aktuell Pinneberg

Aktuelles Wetter: Quickborn (17m)

6-stündlich | Neueste Meldungen
Ortszeit Temperatur Wetter
Fr, 23.08. 14:00 23.8° C leicht bewölkt
Fr, 23.08. 8:00 13.0° C leicht bewölkt
Fr, 23.08. 2:00 9.8° C Nebel
Do, 22.08. 20:00 21.3° C leicht bewölkt
Do, 22.08. 14:00 24.2° C fast wolkenlos
Do, 22.08. 8:00 12.5° C fast wolkenlos
Do, 22.08. 2:00 8.6° C wolkenlos
Mi, 21.08. 20:00 17.4° C wolkig
Ortszeit Temperatur Wetter
Fr, 23.08. 17:30 24.2° C wolkig
Fr, 23.08. 17:20 24.2° C wolkig
Fr, 23.08. 17:10 24.2° C wolkig
Fr, 23.08. 17:00 24.1° C leicht bewölkt
Fr, 23.08. 16:50 24.1° C wolkig
Fr, 23.08. 16:40 24.1° C wolkig
Fr, 23.08. 16:30 24.0° C wolkig
Fr, 23.08. 16:00 24.0° C leicht bewölkt
Fr, 23.08. 15:30 23.8° C wolkig
Fr, 23.08. 15:00 23.9° C leicht bewölkt
Fr, 23.08. 14:30 23.8° C wolkig
Ortszeit Relative Feuchte Sichtweite
Fr, 23.08. 14:00 45% 45 km
Fr, 23.08. 8:00 95% 5.0 km
Fr, 23.08. 2:00 98% 0.2 km
Do, 22.08. 20:00 59% 45 km
Do, 22.08. 14:00 36% 60 km
Do, 22.08. 8:00 81% 35 km
Do, 22.08. 2:00 99% 7 km
Mi, 21.08. 20:00 80% 45 km
Ortszeit Relative Feuchte Sichtweite
Fr, 23.08. 17:30 36% 55 km
Fr, 23.08. 17:20 36% -
Fr, 23.08. 17:10 40% -
Fr, 23.08. 17:00 42% 55 km
Fr, 23.08. 16:50 42% -
Fr, 23.08. 16:40 40% -
Fr, 23.08. 16:30 39% 65 km
Fr, 23.08. 16:00 40% 40 km
Fr, 23.08. 15:30 43% 40 km
Fr, 23.08. 15:00 44% 45 km
Fr, 23.08. 14:30 49% 40 km
Ortszeit Niederschlagsmenge Niederschlagsart
Fr, 23.08. 14:00 0.0 l/m2 in 6 Std. -
Fr, 23.08. 8:00 0.0 l/m2 in 12 Std. -
Fr, 23.08. 2:00 0.0 l/m2 in 6 Std. -
Do, 22.08. 20:00 0.0 l/m2 in 12 Std. -
Do, 22.08. 14:00 0.0 l/m2 in 6 Std. -
Do, 22.08. 8:00 0.0 l/m2 in 12 Std. -
Do, 22.08. 2:00 0.0 l/m2 in 6 Std. -
Mi, 21.08. 20:00 0.0 l/m2 in 12 Std. -
Ortszeit Niederschlagsmenge Niederschlagsart
Fr, 23.08. 17:30 0.0 l/m2 in 1 Std. -
Fr, 23.08. 17:20 keine Meldung -
Fr, 23.08. 17:10 keine Meldung -
Fr, 23.08. 17:00 0.0 l/m2 in 1 Std. -
Fr, 23.08. 16:50 keine Meldung -
Fr, 23.08. 16:40 keine Meldung -
Fr, 23.08. 16:30 0.0 l/m2 in 1 Std. -
Fr, 23.08. 16:00 0.0 l/m2 in 1 Std. -
Fr, 23.08. 15:30 0.0 l/m2 in 1 Std. -
Fr, 23.08. 15:00 0.0 l/m2 in 1 Std. -
Fr, 23.08. 14:30 0.0 l/m2 in 1 Std. -
Ortszeit Stärke Spitze Richtung
km/h Bft. km/h Grad Sektor
Fr, 23.08. 14:00 11 2 24 240° SW
Fr, 23.08. 8:00 4 1 4 180° S
Fr, 23.08. 2:00 0 0 18 - -
Do, 22.08. 20:00 6 1 26 220° SW
Do, 22.08. 14:00 13 3 28 220° SW
Do, 22.08. 8:00 6 1 9 160° S
Do, 22.08. 2:00 0 0 4 - -
Mi, 21.08. 20:00 2 1 28 320° NW
Ortszeit Stärke Spitze Richtung
km/h Bft. km/h Grad Sektor
Fr, 23.08. 17:30 7 2 14 320° NW
Fr, 23.08. 17:20 7 2 - 320° NW
Fr, 23.08. 17:10 7 2 - 300° NW
Fr, 23.08. 17:00 7 2 18 280° W
Fr, 23.08. 16:50 7 2 - 280° W
Fr, 23.08. 16:40 7 2 - 270° W
Fr, 23.08. 16:30 11 2 18 270° W
Fr, 23.08. 16:00 13 3 20 280° W
Fr, 23.08. 15:30 11 2 20 280° W
Fr, 23.08. 15:00 9 2 19 250° W
Fr, 23.08. 14:30 11 2 18 280° W
Ortszeit Untergrenze Bedeckung Gattung
total tief tief mittel hoch
Fr, 23.08. 14:00 8100 m 8/8 0/8 - - -
Fr, 23.08. 8:00 10500 m 7/8 0/8 - - -
Fr, 23.08. 2:00 10500 m 7/8 0/8 - - -
Do, 22.08. 20:00 9000 m 4/8 0/8 - - -
Do, 22.08. 14:00 10500 m 2/8 0/8 - - -
Do, 22.08. 8:00 10500 m 1/8 0/8 - - -
Do, 22.08. 2:00 9000 m 0/8 0/8 - - -
Mi, 21.08. 20:00 9000 m 8/8 0/8 - - -
Ortszeit Bedeckungsgrad in Achtel und Wolkenuntergrenze
Fr, 23.08. 17:30 7(8400m)
Fr, 23.08. 17:20 7(8400m)
Fr, 23.08. 17:10 6(8400m) 8(9000m)
Fr, 23.08. 17:00 5(8100m) 8(9000m)
Fr, 23.08. 16:50 5(8100m) 8(9000m)
Fr, 23.08. 16:40 8(8100m) 8(9000m)
Fr, 23.08. 16:30 8(8100m) 8(9000m)
Fr, 23.08. 16:00 8(8100m)
Fr, 23.08. 15:30 8(7800m)
Fr, 23.08. 15:00 7(8100m) 7(9000m)
Fr, 23.08. 14:30 5(8400m) 8(9000m)
Ortszeit Luftdruck NN (hPa) Tendenz (hPa in 3 Std.)
Fr, 23.08. 14:00 1026 - 0,4
Fr, 23.08. 8:00 1026 + 0,4
Fr, 23.08. 2:00 1026 + 0,4
Do, 22.08. 20:00 1024 - 0,4
Do, 22.08. 14:00 1025 - 1,2
Do, 22.08. 8:00 1027 - 0,8
Do, 22.08. 2:00 1028 - 0,4
Mi, 21.08. 20:00 1028 - 0,1
Ortszeit Luftdruck NN (hPa) Tendenz (hPa in 3 Std.)
Fr, 23.08. 17:30 1026 - 0,6
Fr, 23.08. 17:20 1026 keine Meldung
Fr, 23.08. 17:10 1026 keine Meldung
Fr, 23.08. 17:00 1026 - 0,5
Fr, 23.08. 16:50 1026 keine Meldung
Fr, 23.08. 16:40 1026 keine Meldung
Fr, 23.08. 16:30 1026 - 0,4
Fr, 23.08. 16:00 1026 - 0,5
Fr, 23.08. 15:30 1026 - 0,5
Fr, 23.08. 15:00 1026 - 0,4
Fr, 23.08. 14:30 1026 - 0,4
Ortszeit Schneehöhe (cm)
Fr, 23.08. 14:00 -
Fr, 23.08. 8:00 -
Fr, 23.08. 2:00 -
Do, 22.08. 20:00 -
Do, 22.08. 14:00 -
Do, 22.08. 8:00 -
Do, 22.08. 2:00 -
Mi, 21.08. 20:00 -
Ortszeit Schneehöhe (cm)
Fr, 23.08. 17:30 -
Fr, 23.08. 17:20 -
Fr, 23.08. 17:10 -
Fr, 23.08. 17:00 -
Fr, 23.08. 16:50 -
Fr, 23.08. 16:40 -
Fr, 23.08. 16:30 -
Fr, 23.08. 16:00 -
Fr, 23.08. 15:30 -
Fr, 23.08. 15:00 -
Fr, 23.08. 14:30 -
Link zu dieser Seite / Seite empfehlen

Das Wetter in ...